Flight Track Log - Related Links

Times and Time Zones

All times are in EDT time to prevent confusion due to time zone crossing. See the N5167L flight status page for this flight to view local times or setup timezone preferences in your user account.

Time Position Orientation Groundspeed Altitude Reporting Facility
EDT Latitude Longitude Course Direction KTS MPH feet Rate Location/Type
Sun 03:35:08 PM 36.2772 -93.7756 259° West 124 143 4,100  Level Kansas City Center
Sun 03:36:10 PM 36.2703 -93.8186 259° West 126 145 4,100  Level Kansas City Center
Sun 03:37:12 PM 36.2678 -93.8608 266° West 125 144 4,100 -48 Level Kansas City Center
Sun 03:38:14 PM 36.2639 -93.9031 263° West 125 144 4,000 -48 Descending Kansas City Center
Sun 03:39:16 PM 36.2611 -93.9450 265° West 123 142 4,000  Level Kansas City Center
Sun 03:40:18 PM 36.2569 -93.9872 263° West 123 142 4,000  Level Kansas City Center
Sun 03:41:20 PM 36.2531 -94.0375 265° West 123 142 4,000  Level Kansas City Center
Sun 03:42:22 PM 36.2514 -94.0794 267° West 122 140 4,000  Level Kansas City Center
Sun 03:43:24 PM 36.2489 -94.1211 266° West 121 139 4,000  Level Kansas City Center
Sun 03:44:26 PM 36.2464 -94.1631 266° West 122 140 4,000  Level Kansas City Center
Sun 03:45:28 PM 36.2447 -94.2058 267° West 123 142 4,000  Level Kansas City Center
Sun 03:46:30 PM 36.2436 -94.2478 268° West 123 142 4,000  Level Kansas City Center
Sun 03:47:32 PM 36.2419 -94.3003 268° West 125 144 4,000  Level Kansas City Center
Sun 03:48:34 PM 36.2419 -94.3431 270° West 125 144 4,000 -48 Level Kansas City Center
Sun 03:49:36 PM 36.2408 -94.3864 268° West 125 144 3,900 -48 Descending Kansas City Center
Sun 03:50:38 PM 36.2392 -94.4289 267° West 124 143 3,900 48 Level Kansas City Center
Sun 03:51:41 PM 36.2394 -94.4717 270° West 124 143 4,000  Climbing Kansas City Center
Sun 03:52:43 PM 36.2386 -94.5142 269° West 124 143 3,900  Descending Kansas City Center
Sun 03:53:45 PM 36.2361 -94.5564 266° West 123 142 4,000 48 Climbing Kansas City Center
Sun 03:54:47 PM 36.2347 -94.6075 268° West 123 142 4,000  Level Kansas City Center
Sun 03:55:49 PM 36.2342 -94.6503 269° West 124 143 4,000  Level Kansas City Center
Sun 03:56:51 PM 36.2333 -94.6936 269° West 125 144 4,000  Level Kansas City Center
Sun 03:57:53 PM 36.2311 -94.7364 266° West 125 144 4,000  Level Kansas City Center
Sun 03:58:55 PM 36.2297 -94.7800 268° West 126 145 4,000  Level Kansas City Center
Sun 03:59:57 PM 36.2281 -94.8217 267° West 124 143 4,000  Level Kansas City Center
Sun 04:00:59 PM 36.2278 -94.8631 270° West 122 140 4,000  Level Kansas City Center
Sun 04:02:01 PM 36.2267 -94.9136 268° West 122 140 4,000  Level Kansas City Center
Sun 04:03:03 PM 36.2239 -94.9553 265° West 121 139 4,000  Level Kansas City Center
Sun 04:04:05 PM 36.2219 -94.9969 267° West 121 139 4,000  Level Kansas City Center
Sun 04:04:29 PM 36.2206 -95.0183 265° West 121 139 4,000  Level Kansas City Center
Sun 04:05:07 PM 36.2211 -95.0397 272° West 122 140 4,000 98 Level Kansas City Center
Sun 04:05:30 PM 36.2200 -95.0572 266° West 120 138 4,100  Climbing Kansas City Center
Sun 04:06:09 PM 36.2200 -95.0797 270° West 120 138 4,000 -100 Descending Kansas City Center
Sun 04:06:30 PM 36.2197 -95.0986 269° West 119 137 4,000  Level Kansas City Center
Sun 04:07:31 PM 36.2172 -95.1406 266° West 124 143 4,000  Level Kansas City Center
Sun 04:08:13 PM 36.2175 -95.1647 271° West 122 140 4,000  Level Kansas City Center
Sun 04:08:26 PM 36.2167 -95.1819 267° West 124 143 4,000  Level Kansas City Center
Sun 04:09:15 PM 36.2181 -95.2153 273° West 122 140 4,000  Level Kansas City Center
Sun 04:09:26 PM 36.2183 -95.2206 274° West 120 138 4,000 97 Level Kansas City Center
Sun 04:10:17 PM 36.2206 -95.2572 274° West 122 140 4,100 98 Climbing Kansas City Center
Sun 04:10:27 PM 36.2200 -95.2644 265° West 122 140 4,100  Level Kansas City Center
Sun 04:11:19 PM 36.2233 -95.3003 277° West 123 142 4,100 -98 Level Kansas City Center
Sun 04:11:28 PM 36.2242 -95.3106 276° West 124 143 4,000 -609 Descending Kansas City Center
Sun 04:12:28 PM 36.2261 -95.3542 273° West 132 152 3,400 -522 Descending Kansas City Center
Sun 04:13:23 PM 36.2308 -95.3906 279° West 129 148 3,000 -537 Descending Kansas City Center
Sun 04:13:35 PM 36.2325 -95.4025 280° West 133 153 2,800 -364 Descending Kansas City Center
Sun 04:14:29 PM 36.2342 -95.4439 273° West 128 147 2,600 -107 Descending Kansas City Center
Sun 04:15:27 PM 36.2381 -95.4786 278° West 128 147 2,600  Level Kansas City Center
Sun 04:15:30 PM 36.2400 -95.4872 286° West 127 146 2,600  Level Kansas City Center
Sun 04:16:29 PM 36.2447 -95.5292 278° West 125 144 2,600  Level Kansas City Center
Sun 04:16:37 PM 36.2444 -95.5358 267° West 125 144 2,600  Level Kansas City Center
Sun 04:17:37 PM 36.2481 -95.5767 276° West 122 140 2,600  Level Kansas City Center
Sun 04:18:33 PM 36.2525 -95.6125 279° West 123 142 2,600  Level Kansas City Center

Login

Don't have an account? Register now (free) for customized features, flight alerts, and more!